Wetterdaten: Dienstag, 04.11.2014
Datum Zeit Temp. A. Feuchte A. Luftdruck Regen Wind Richtung Richtung Sonnenschein ET UV Solar Taupunkt Windchill Windben Empfang
04.11.2014 00:00 5,0 C 89 % 1019,2 hPa 0,0 l/m 2,2 km/h (1 Bft) O-SO 108 0 min 0,000 mm 0,0 UV-I 0 W/m 3,3 C 5,0 C 4,0 km/h (1 Bft) 0,00 %
04.11.2014 00:15 5,0 C 89 % 1019,2 hPa 0,0 l/m 0,0 km/h (0 Bft) O-NO 70 0 min 0,000 mm 0,0 UV-I 0 W/m 3,3 C 5,0 C 0,0 km/h (0 Bft) 0,00 %
04.11.2014 00:30 5,0 C 89 % 1019,2 hPa 0,0 l/m 1,8 km/h (1 Bft) O 99 0 min 0,000 mm 0,0 UV-I 0 W/m 3,3 C 5,0 C 4,0 km/h (1 Bft) 0,00 %
04.11.2014 00:45 5,0 C 89 % 1019,2 hPa 0,0 l/m 0,7 km/h (0 Bft) SO 129 0 min 0,000 mm 0,0 UV-I 0 W/m 3,3 C 5,0 C 4,0 km/h (1 Bft) 0,00 %
04.11.2014 01:00 4,9 C 89 % 1019,3 hPa 0,0 l/m 2,2 km/h (1 Bft) O-NO 70 0 min 0,000 mm 0,0 UV-I 0 W/m 3,2 C 4,9 C 7,9 km/h (2 Bft) 0,00 %
04.11.2014 01:15 5,0 C 89 % 1019,2 hPa 0,0 l/m 4,0 km/h (1 Bft) O 80 0 min 0,000 mm 0,0 UV-I 0 W/m 3,3 C 5,0 C 4,0 km/h (1 Bft) 0,00 %
04.11.2014 01:30 4,9 C 89 % 1019,3 hPa 0,0 l/m 3,2 km/h (1 Bft) O 84 0 min 0,000 mm 0,0 UV-I 0 W/m 3,2 C 4,9 C 7,9 km/h (2 Bft) 0,00 %
04.11.2014 01:45 5,0 C 89 % 1019,2 hPa 0,0 l/m 1,4 km/h (1 Bft) O 83 0 min 0,000 mm 0,0 UV-I 0 W/m 3,3 C 5,0 C 4,0 km/h (1 Bft) 0,00 %
04.11.2014 02:00 5,0 C 90 % 1019,2 hPa 0,0 l/m 0,0 km/h (0 Bft) O 79 0 min 0,000 mm 0,0 UV-I 0 W/m 3,5 C 5,0 C 0,0 km/h (0 Bft) 0,00 %
04.11.2014 02:15 4,9 C 90 % 1019,3 hPa 0,0 l/m 0,7 km/h (0 Bft) O 85 0 min 0,000 mm 0,0 UV-I 0 W/m 3,4 C 4,9 C 4,0 km/h (1 Bft) 0,00 %
04.11.2014 02:30 4,9 C 90 % 1019,3 hPa 0,0 l/m 3,2 km/h (1 Bft) O 89 0 min 0,000 mm 0,0 UV-I 0 W/m 3,4 C 4,9 C 7,9 km/h (2 Bft) 0,00 %
04.11.2014 02:45 4,9 C 90 % 1019,3 hPa 0,0 l/m 1,8 km/h (1 Bft) O 94 0 min 0,000 mm 0,0 UV-I 0 W/m 3,4 C 4,9 C 4,0 km/h (1 Bft) 0,00 %
04.11.2014 03:00 4,9 C 90 % 1019,3 hPa 0,0 l/m 1,8 km/h (1 Bft) O-SO 105 0 min 0,000 mm 0,0 UV-I 0 W/m 3,4 C 4,9 C 4,0 km/h (1 Bft) 0,00 %
04.11.2014 03:15 4,8 C 90 % 1019,3 hPa 0,0 l/m 4,0 km/h (1 Bft) O-SO 112 0 min 0,000 mm 0,0 UV-I 0 W/m 3,3 C 4,8 C 11,9 km/h (2 Bft) 0,00 %
04.11.2014 03:30 4,7 C 90 % 1019,3 hPa 0,0 l/m 0,0 km/h (0 Bft) N 360 0 min 0,000 mm 0,0 UV-I 0 W/m 3,2 C 4,7 C 0,0 km/h (0 Bft) 0,00 %
04.11.2014 03:45 4,6 C 90 % 1019,3 hPa 0,0 l/m 0,0 km/h (0 Bft) N 360 0 min 0,000 mm 0,0 UV-I 0 W/m 3,1 C 4,6 C 0,0 km/h (0 Bft) 0,00 %
04.11.2014 04:00 4,5 C 90 % 1019,3 hPa 0,0 l/m 0,0 km/h (0 Bft) N 360 0 min 0,000 mm 0,0 UV-I 0 W/m 3,0 C 4,5 C 0,0 km/h (0 Bft) 0,00 %
04.11.2014 04:15 4,4 C 90 % 1019,3 hPa 0,0 l/m 0,0 km/h (0 Bft) N 360 0 min 0,000 mm 0,0 UV-I 0 W/m 2,9 C 4,4 C 0,0 km/h (0 Bft) 0,00 %
04.11.2014 04:30 4,3 C 90 % 1019,4 hPa 0,0 l/m 0,0 km/h (0 Bft) N 360 0 min 0,000 mm 0,0 UV-I 0 W/m 2,8 C 4,3 C 0,0 km/h (0 Bft) 0,00 %
04.11.2014 04:45 4,2 C 90 % 1019,4 hPa 0,0 l/m 0,0 km/h (0 Bft) N 360 0 min 0,000 mm 0,0 UV-I 0 W/m 2,7 C 4,2 C 0,0 km/h (0 Bft) 0,00 %
04.11.2014 05:00 4,1 C 90 % 1019,4 hPa 0,0 l/m 0,0 km/h (0 Bft) N 360 0 min 0,000 mm 0,0 UV-I 0 W/m 2,6 C 4,1 C 0,0 km/h (0 Bft) 0,00 %
04.11.2014 05:15 4,0 C 90 % 1019,4 hPa 0,0 l/m 0,0 km/h (0 Bft) N 360 0 min 0,000 mm 0,0 UV-I 0 W/m 2,5 C 4,0 C 0,0 km/h (0 Bft) 0,00 %
04.11.2014 05:30 3,9 C 90 % 1019,4 hPa 0,0 l/m 0,0 km/h (0 Bft) N 360 0 min 0,000 mm 0,0 UV-I 0 W/m 2,4 C 3,9 C 0,0 km/h (0 Bft) 0,00 %
04.11.2014 05:45 3,9 C 90 % 1019,4 hPa 0,0 l/m 0,0 km/h (0 Bft) N 360 0 min 0,000 mm 0,0 UV-I 0 W/m 2,4 C 3,9 C 0,0 km/h (0 Bft) 0,00 %
04.11.2014 06:00 3,9 C 90 % 1019,4 hPa 0,0 l/m 0,0 km/h (0 Bft) N 360 0 min 0,000 mm 0,0 UV-I 0 W/m 2,4 C 3,9 C 0,0 km/h (0 Bft) 0,00 %
04.11.2014 06:15 3,9 C 90 % 1019,4 hPa 0,0 l/m 0,0 km/h (0 Bft) N 360 0 min 0,000 mm 0,0 UV-I 0 W/m 2,4 C 3,9 C 0,0 km/h (0 Bft) 0,00 %
04.11.2014 06:30 4,1 C 90 % 1019,4 hPa 0,0 l/m 0,0 km/h (0 Bft) N 360 0 min 0,000 mm 0,0 UV-I 0 W/m 2,6 C 4,1 C 0,0 km/h (0 Bft) 0,00 %
04.11.2014 06:45 4,2 C 90 % 1019,4 hPa 0,0 l/m 0,0 km/h (0 Bft) N 360 0 min 0,000 mm 0,0 UV-I 0 W/m 2,7 C 4,2 C 0,0 km/h (0 Bft) 0,00 %
04.11.2014 07:00 4,3 C 90 % 1019,4 hPa 0,0 l/m 0,0 km/h (0 Bft) N 360 0 min 0,000 mm 0,0 UV-I 0 W/m 2,8 C 4,3 C 0,0 km/h (0 Bft) 0,00 %
04.11.2014 07:15 4,4 C 90 % 1019,3 hPa 0,0 l/m 0,0 km/h (0 Bft) N 360 0 min 0,000 mm 0,0 UV-I 0 W/m 2,9 C 4,4 C 0,0 km/h (0 Bft) 0,00 %
04.11.2014 07:30 4,5 C 90 % 1019,3 hPa 0,0 l/m 0,0 km/h (0 Bft) N 360 0 min 0,000 mm 0,0 UV-I 0 W/m 3,0 C 4,5 C 0,0 km/h (0 Bft) 0,00 %
04.11.2014 07:45 4,6 C 90 % 1019,3 hPa 0,0 l/m 0,0 km/h (0 Bft) N 360 0 min 0,000 mm 0,0 UV-I 0 W/m 3,1 C 4,6 C 0,0 km/h (0 Bft) 0,00 %
04.11.2014 08:00 4,7 C 90 % 1019,3 hPa 0,0 l/m 0,0 km/h (0 Bft) N 360 0 min 0,000 mm 0,0 UV-I 0 W/m 3,2 C 4,7 C 0,0 km/h (0 Bft) 0,00 %
04.11.2014 08:15 4,8 C 90 % 1019,3 hPa 0,0 l/m 0,0 km/h (0 Bft) N 360 0 min 0,000 mm 0,0 UV-I 0 W/m 3,3 C 4,8 C 0,0 km/h (0 Bft) 0,00 %
04.11.2014 08:30 4,9 C 90 % 1019,3 hPa 0,0 l/m 0,0 km/h (0 Bft) N 360 0 min 0,000 mm 0,0 UV-I 0 W/m 3,4 C 4,9 C 0,0 km/h (0 Bft) 0,00 %
04.11.2014 08:45 4,1 C 90 % 1019,4 hPa 0,0 l/m 0,0 km/h (0 Bft) N 360 0 min 0,000 mm 0,0 UV-I 0 W/m 2,6 C 4,1 C 0,0 km/h (0 Bft) 0,00 %
04.11.2014 09:00 4,1 C 90 % 1019,4 hPa 0,0 l/m 0,0 km/h (0 Bft) N 360 0 min 0,000 mm 0,0 UV-I 0 W/m 2,6 C 4,1 C 0,0 km/h (0 Bft) 0,00 %
04.11.2014 09:15 4,1 C 90 % 1019,4 hPa 0,0 l/m 0,0 km/h (0 Bft) N 360 0 min 0,000 mm 0,0 UV-I 0 W/m 2,6 C 4,1 C 0,0 km/h (0 Bft) 0,00 %
04.11.2014 09:30 6,0 C 90 % 1019,1 hPa 0,0 l/m 0,0 km/h (0 Bft) N 360 0 min 0,000 mm 0,0 UV-I 0 W/m 4,5 C 6,0 C 0,0 km/h (0 Bft) 0,00 %
04.11.2014 09:45 7,0 C 90 % 1018,9 hPa 0,0 l/m 0,0 km/h (0 Bft) N 360 0 min 0,000 mm 0,0 UV-I 0 W/m 5,5 C 7,0 C 0,0 km/h (0 Bft) 0,00 %
04.11.2014 10:00 6,0 C 90 % 1019,1 hPa 0,0 l/m 0,0 km/h (0 Bft) N 360 0 min 0,000 mm 0,0 UV-I 0 W/m 4,5 C 6,0 C 0,0 km/h (0 Bft) 0,00 %
04.11.2014 10:15 6,5 C 90 % 1019,0 hPa 0,0 l/m 0,0 km/h (0 Bft) N 360 0 min 0,000 mm 0,0 UV-I 0 W/m 5,0 C 6,5 C 0,0 km/h (0 Bft) 0,00 %
04.11.2014 10:30 7,0 C 90 % 1018,9 hPa 0,0 l/m 0,0 km/h (0 Bft) N 360 0 min 0,000 mm 0,0 UV-I 0 W/m 5,5 C 7,0 C 0,0 km/h (0 Bft) 0,00 %
04.11.2014 10:45 6,6 C 90 % 1019,0 hPa 0,0 l/m 0,0 km/h (0 Bft) N 360 0 min 0,000 mm 0,0 UV-I 0 W/m 5,1 C 6,6 C 0,0 km/h (0 Bft) 0,00 %
04.11.2014 11:00 8,0 C 90 % 1018,8 hPa 0,0 l/m 0,0 km/h (0 Bft) N 360 0 min 0,000 mm 0,0 UV-I 0 W/m 6,5 C 8,0 C 0,0 km/h (0 Bft) 0,00 %
04.11.2014 11:15 6,7 C 90 % 1019,0 hPa 0,0 l/m 0,0 km/h (0 Bft) N 360 0 min 0,000 mm 0,0 UV-I 0 W/m 5,2 C 6,7 C 0,0 km/h (0 Bft) 0,00 %
04.11.2014 11:30 9,0 C 90 % 1018,6 hPa 0,0 l/m 0,0 km/h (0 Bft) N 360 0 min 0,000 mm 0,0 UV-I 0 W/m 7,4 C 9,0 C 0,0 km/h (0 Bft) 0,00 %
04.11.2014 11:45 6,8 C 90 % 1019,0 hPa 0,0 l/m 0,0 km/h (0 Bft) N 360 0 min 0,000 mm 0,0 UV-I 0 W/m 5,3 C 6,8 C 0,0 km/h (0 Bft) 0,00 %
04.11.2014 12:00 10,0 C 90 % 1018,4 hPa 0,0 l/m 0,0 km/h (0 Bft) N 360 0 min 0,000 mm 0,0 UV-I 0 W/m 8,4 C 10,0 C 0,0 km/h (0 Bft) 0,00 %
04.11.2014 12:15 6,9 C 80 % 1018,9 hPa 0,0 l/m 0,0 km/h (0 Bft) N 360 0 min 0,000 mm 0,0 UV-I 0 W/m 3,7 C 6,9 C 0,0 km/h (0 Bft) 0,00 %
04.11.2014 12:30 11,0 C 80 % 1018,3 hPa 0,0 l/m 0,0 km/h (0 Bft) N 360 0 min 0,000 mm 0,0 UV-I 0 W/m 7,7 C 11,0 C 0,0 km/h (0 Bft) 0,00 %
04.11.2014 12:45 6,1 C 80 % 1019,1 hPa 0,0 l/m 0,0 km/h (0 Bft) N 360 0 min 0,000 mm 0,0 UV-I 0 W/m 2,9 C 6,1 C 0,0 km/h (0 Bft) 0,00 %
04.11.2014 13:00 12,0 C 80 % 1018,1 hPa 0,0 l/m 0,0 km/h (0 Bft) N 360 0 min 0,000 mm 0,0 UV-I 0 W/m 8,7 C 12,0 C 0,0 km/h (0 Bft) 0,00 %
04.11.2014 13:15 13,1 C 80 % 1017,9 hPa 0,0 l/m 0,0 km/h (0 Bft) N 360 0 min 0,000 mm 0,0 UV-I 0 W/m 9,7 C 13,1 C 0,0 km/h (0 Bft) 0,00 %
04.11.2014 13:30 13,3 C 80 % 1017,9 hPa 0,0 l/m 0,0 km/h (0 Bft) N 360 0 min 0,000 mm 0,0 UV-I 0 W/m 9,9 C 13,3 C 0,0 km/h (0 Bft) 0,00 %
04.11.2014 13:45 13,7 C 80 % 1017,8 hPa 0,0 l/m 0,0 km/h (0 Bft) N 360 0 min 0,000 mm 0,0 UV-I 0 W/m 10,3 C 13,7 C 0,0 km/h (0 Bft) 0,00 %
04.11.2014 14:00 13,1 C 80 % 1017,9 hPa 0,0 l/m 0,0 km/h (0 Bft) N 360 0 min 0,000 mm 0,0 UV-I 0 W/m 9,7 C 13,1 C 0,0 km/h (0 Bft) 0,00 %
04.11.2014 14:15 13,3 C 80 % 1017,9 hPa 0,0 l/m 0,0 km/h (0 Bft) N 360 0 min 0,000 mm 0,0 UV-I 0 W/m 9,9 C 13,3 C 0,0 km/h (0 Bft) 0,00 %
04.11.2014 14:30 13,7 C 80 % 1017,8 hPa 0,0 l/m 0,0 km/h (0 Bft) N 360 0 min 0,000 mm 0,0 UV-I 0 W/m 10,3 C 13,7 C 0,0 km/h (0 Bft) 0,00 %
04.11.2014 14:45 13,1 C 80 % 1017,9 hPa 0,0 l/m 0,0 km/h (0 Bft) N 360 0 min 0,000 mm 0,0 UV-I 0 W/m 9,7 C 13,1 C 0,0 km/h (0 Bft) 0,00 %
04.11.2014 15:00 13,3 C 80 % 1017,9 hPa 0,0 l/m 0,0 km/h (0 Bft) N 360 0 min 0,000 mm 0,0 UV-I 0 W/m 9,9 C 13,3 C 0,0 km/h (0 Bft) 0,00 %
04.11.2014 15:15 13,7 C 80 % 1017,8 hPa 0,0 l/m 0,0 km/h (0 Bft) N 360 0 min 0,000 mm 0,0 UV-I 0 W/m 10,3 C 13,7 C 0,0 km/h (0 Bft) 0,00 %
04.11.2014 15:30 13,1 C 80 % 1017,9 hPa 0,0 l/m 0,0 km/h (0 Bft) N 360 0 min 0,000 mm 0,0 UV-I 0 W/m 9,7 C 13,1 C 0,0 km/h (0 Bft) 0,00 %
04.11.2014 15:45 13,3 C 80 % 1017,9 hPa 0,0 l/m 0,0 km/h (0 Bft) N 360 0 min 0,000 mm 0,0 UV-I 0 W/m 9,9 C 13,3 C 0,0 km/h (0 Bft) 0,00 %
04.11.2014 16:00 10,2 C 80 % 1018,4 hPa 0,0 l/m 0,0 km/h (0 Bft) N 360 0 min 0,000 mm 0,0 UV-I 0 W/m 6,9 C 10,2 C 0,0 km/h (0 Bft) 0,00 %
04.11.2014 16:15 10,4 C 80 % 1018,4 hPa 0,0 l/m 0,0 km/h (0 Bft) N 360 0 min 0,000 mm 0,0 UV-I 0 W/m 7,1 C 10,4 C 0,0 km/h (0 Bft) 0,00 %
04.11.2014 16:30 10,6 C 80 % 1018,3 hPa 0,0 l/m 0,0 km/h (0 Bft) N 360 0 min 0,000 mm 0,0 UV-I 0 W/m 7,3 C 10,6 C 0,0 km/h (0 Bft) 0,00 %
04.11.2014 16:45 10,8 C 80 % 1018,3 hPa 0,0 l/m 0,0 km/h (0 Bft) N 360 0 min 0,000 mm 0,0 UV-I 0 W/m 7,5 C 10,8 C 0,0 km/h (0 Bft) 0,00 %
04.11.2014 17:00 7,3 C 80 % 1018,9 hPa 0,0 l/m 0,0 km/h (0 Bft) N 360 0 min 0,000 mm 0,0 UV-I 0 W/m 4,1 C 7,3 C 0,0 km/h (0 Bft) 0,00 %
04.11.2014 17:15 7,2 C 80 % 1018,9 hPa 0,0 l/m 0,0 km/h (0 Bft) N 360 0 min 0,000 mm 0,0 UV-I 0 W/m 4,0 C 7,2 C 0,0 km/h (0 Bft) 0,00 %
04.11.2014 17:30 7,1 C 80 % 1018,9 hPa 0,0 l/m 0,0 km/h (0 Bft) N 360 0 min 0,000 mm 0,0 UV-I 0 W/m 3,9 C 7,1 C 0,0 km/h (0 Bft) 0,00 %
04.11.2014 17:45 7,0 C 80 % 1018,9 hPa 0,0 l/m 0,0 km/h (0 Bft) N 360 0 min 0,000 mm 0,0 UV-I 0 W/m 3,8 C 7,0 C 0,0 km/h (0 Bft) 0,00 %
04.11.2014 18:00 7,1 C 80 % 1018,9 hPa 0,0 l/m 0,0 km/h (0 Bft) N 360 0 min 0,000 mm 0,0 UV-I 0 W/m 3,9 C 7,1 C 0,0 km/h (0 Bft) 0,00 %
04.11.2014 18:15 7,2 C 80 % 1018,9 hPa 0,0 l/m 0,0 km/h (0 Bft) N 360 0 min 0,000 mm 0,0 UV-I 0 W/m 4,0 C 7,2 C 0,0 km/h (0 Bft) 0,00 %
04.11.2014 18:30 7,3 C 90 % 1018,9 hPa 0,0 l/m 0,0 km/h (0 Bft) N 360 0 min 0,000 mm 0,0 UV-I 0 W/m 5,8 C 7,3 C 0,0 km/h (0 Bft) 0,00 %
04.11.2014 18:45 7,4 C 90 % 1018,9 hPa 0,0 l/m 0,0 km/h (0 Bft) N 360 0 min 0,000 mm 0,0 UV-I 0 W/m 5,9 C 7,4 C 0,0 km/h (0 Bft) 0,00 %
04.11.2014 19:00 7,5 C 90 % 1018,8 hPa 0,0 l/m 0,0 km/h (0 Bft) N 360 0 min 0,000 mm 0,0 UV-I 0 W/m 6,0 C 7,5 C 0,0 km/h (0 Bft) 0,00 %
04.11.2014 19:15 7,6 C 90 % 1018,8 hPa 0,0 l/m 0,0 km/h (0 Bft) N 360 0 min 0,000 mm 0,0 UV-I 0 W/m 6,1 C 7,6 C 0,0 km/h (0 Bft) 0,00 %
04.11.2014 19:30 7,7 C 90 % 1018,8 hPa 0,0 l/m 0,0 km/h (0 Bft) N 360 0 min 0,000 mm 0,0 UV-I 0 W/m 6,2 C 7,7 C 0,0 km/h (0 Bft) 0,00 %
04.11.2014 19:45 7,8 C 90 % 1018,8 hPa 0,0 l/m 0,0 km/h (0 Bft) N 360 0 min 0,000 mm 0,0 UV-I 0 W/m 6,3 C 7,8 C 0,0 km/h (0 Bft) 0,00 %
04.11.2014 20:00 5,4 C 90 % 1019,2 hPa 0,0 l/m 0,0 km/h (0 Bft) N 360 0 min 0,000 mm 0,0 UV-I 0 W/m 3,9 C 5,4 C 0,0 km/h (0 Bft) 0,00 %
04.11.2014 20:15 5,4 C 90 % 1019,2 hPa 0,0 l/m 0,0 km/h (0 Bft) N 360 0 min 0,000 mm 0,0 UV-I 0 W/m 3,9 C 5,4 C 0,0 km/h (0 Bft) 0,00 %
04.11.2014 20:30 5,4 C 90 % 1019,2 hPa 0,0 l/m 0,0 km/h (0 Bft) N 360 0 min 0,000 mm 0,0 UV-I 0 W/m 3,9 C 5,4 C 0,0 km/h (0 Bft) 0,00 %
04.11.2014 20:45 5,4 C 90 % 1019,2 hPa 0,0 l/m 0,0 km/h (0 Bft) N 360 0 min 0,000 mm 0,0 UV-I 0 W/m 3,9 C 5,4 C 0,0 km/h (0 Bft) 0,00 %
04.11.2014 21:00 5,4 C 90 % 1019,2 hPa 0,0 l/m 0,0 km/h (0 Bft) N 360 0 min 0,000 mm 0,0 UV-I 0 W/m 3,9 C 5,4 C 0,0 km/h (0 Bft) 0,00 %
04.11.2014 21:15 5,4 C 90 % 1019,2 hPa 0,0 l/m 0,0 km/h (0 Bft) N 360 0 min 0,000 mm 0,0 UV-I 0 W/m 3,9 C 5,4 C 0,0 km/h (0 Bft) 0,00 %
04.11.2014 21:30 5,4 C 90 % 1019,2 hPa 0,0 l/m 0,0 km/h (0 Bft) N 360 0 min 0,000 mm 0,0 UV-I 0 W/m 3,9 C 5,4 C 0,0 km/h (0 Bft) 0,00 %
04.11.2014 21:45 5,4 C 90 % 1019,2 hPa 0,0 l/m 0,0 km/h (0 Bft) N 360 0 min 0,000 mm 0,0 UV-I 0 W/m 3,9 C 5,4 C 0,0 km/h (0 Bft) 0,00 %
04.11.2014 22:00 5,4 C 90 % 1019,2 hPa 0,0 l/m 0,0 km/h (0 Bft) N 360 0 min 0,000 mm 0,0 UV-I 0 W/m 3,9 C 5,4 C 0,0 km/h (0 Bft) 0,00 %
04.11.2014 22:15 5,4 C 90 % 1019,2 hPa 0,0 l/m 0,0 km/h (0 Bft) N 360 0 min 0,000 mm 0,0 UV-I 0 W/m 3,9 C 5,4 C 0,0 km/h (0 Bft) 0,00 %
04.11.2014 22:30 5,4 C 90 % 1019,2 hPa 0,0 l/m 0,0 km/h (0 Bft) N 360 0 min 0,000 mm 0,0 UV-I 0 W/m 3,9 C 5,4 C 0,0 km/h (0 Bft) 0,00 %
04.11.2014 22:45 5,4 C 90 % 1019,2 hPa 0,0 l/m 0,0 km/h (0 Bft) N 360 0 min 0,000 mm 0,0 UV-I 0 W/m 3,9 C 5,4 C 0,0 km/h (0 Bft) 0,00 %
04.11.2014 23:00 5,4 C 90 % 1019,2 hPa 0,0 l/m 0,0 km/h (0 Bft) N 360 0 min 0,000 mm 0,0 UV-I 0 W/m 3,9 C 5,4 C 0,0 km/h (0 Bft) 0,00 %
04.11.2014 23:15 5,5 C 90 % 1019,2 hPa 0,0 l/m 0,0 km/h (0 Bft) N 360 0 min 0,000 mm 0,0 UV-I 0 W/m 4,0 C 5,5 C 0,0 km/h (0 Bft) 0,00 %
04.11.2014 23:30 5,6 C 90 % 1019,1 hPa 0,0 l/m 0,0 km/h (0 Bft) N 360 0 min 0,000 mm 0,0 UV-I 0 W/m 4,1 C 5,6 C 0,0 km/h (0 Bft) 0,00 %
04.11.2014 23:45 4,3 C 90 % 1019,4 hPa 0,0 l/m 0,0 km/h (0 Bft) N 360 0 min 0,000 mm 0,0 UV-I 0 W/m 2,8 C 4,3 C 0,0 km/h (0 Bft) 0,00 %
_ Min-Zeit 05:30 12:15 13:45 - 00:15 - - - - - - 05:30 05:30 00:15 00:00
Minimum _ 3,9 C 80 % 1017,8 hPa - 0,0 km/h (0 Bft) - - - - - - 2,4 C 3,9 C 0,0 km/h (0 Bft) 0,00 %
_ Max-Zeit 13:45 02:00 04:30 00:00 01:15 - - 00:00 00:00 00:00 00:00 13:45 13:45 03:15 00:00
Maximum _ 13,7 C 90 % 1019,4 hPa 0,0 l/m 4,0 km/h
O (1 Bft)
- - 0 min 0,000 mm 0,0 UV-I 0 W/m 10,3 C 13,7 C 11,9 km/h
O-SO (2 Bft)
0,00 %
Durchschnitt _ 6,8 C 87 % 1019,0 hPa #0,0 l/m 0,3 km/h (0 Bft) O - #0 min. #0,000 mm 0,0 UV-I 0 W/m 4,8 C 6,8 C 0,7 km/h (0 Bft) 0,00 %